AUTO METAR SJOY 052130Z 04007KT CAVOK 21/15 Q1018